createdAt,value
2022-09-01T00:04:16.104Z,99.90
2022-09-01T00:09:39.361Z,99.90
2022-09-01T00:15:01.615Z,99.90
2022-09-01T00:20:23.834Z,99.90
2022-09-01T00:25:46.053Z,99.90
2022-09-01T00:31:09.588Z,99.90
2022-09-01T00:36:31.762Z,99.90
2022-09-01T00:41:53.991Z,99.90
2022-09-01T00:47:16.695Z,99.90
2022-09-01T00:52:47.898Z,99.90
2022-09-01T00:58:20.012Z,99.90
2022-09-01T01:03:45.531Z,99.90
2022-09-01T01:09:07.848Z,99.90
2022-09-01T01:14:32.050Z,99.90
2022-09-01T01:20:15.890Z,99.90
2022-09-01T01:25:58.503Z,99.90
2022-09-01T01:31:24.236Z,99.90
2022-09-01T01:36:47.189Z,99.90
2022-09-01T01:42:12.388Z,99.90
2022-09-01T01:47:34.883Z,99.90
2022-09-01T01:53:00.167Z,99.90
2022-09-01T01:58:24.682Z,99.90
2022-09-01T02:03:47.006Z,99.90
2022-09-01T02:09:09.233Z,99.90
2022-09-01T02:14:31.436Z,99.90
2022-09-01T02:19:57.541Z,99.90
2022-09-01T02:25:20.689Z,99.90
2022-09-01T02:30:47.041Z,99.90
2022-09-01T02:36:14.214Z,99.90
2022-09-01T02:41:36.769Z,99.90
2022-09-01T02:46:59.862Z,99.90
2022-09-01T02:52:23.844Z,99.90
2022-09-01T02:57:47.093Z,99.90
2022-09-01T03:03:12.728Z,99.90
2022-09-01T03:08:36.652Z,99.90
2022-09-01T03:13:59.449Z,99.90
2022-09-01T03:19:23.481Z,99.90
2022-09-01T03:24:45.739Z,99.90
2022-09-01T03:30:08.389Z,99.90
2022-09-01T03:35:32.050Z,99.90
2022-09-01T03:41:00.946Z,99.90
2022-09-01T03:46:26.748Z,99.90
2022-09-01T03:51:50.097Z,99.90
2022-09-01T03:57:13.874Z,99.90
2022-09-01T04:02:36.757Z,99.90
2022-09-01T04:08:02.952Z,99.90
2022-09-01T04:13:30.428Z,99.90
2022-09-01T04:18:52.805Z,99.90
2022-09-01T04:24:15.475Z,99.90
2022-09-01T04:29:39.195Z,99.90
2022-09-01T04:35:02.202Z,99.90
2022-09-01T04:40:24.474Z,99.90
2022-09-01T04:45:54.490Z,99.90
2022-09-01T04:51:17.902Z,99.90
2022-09-01T04:56:51.451Z,99.90
2022-09-01T05:02:13.948Z,99.90
2022-09-01T05:07:38.063Z,99.90
2022-09-01T05:13:01.761Z,99.90
2022-09-01T05:18:24.421Z,99.90
2022-09-01T05:23:47.245Z,99.90
2022-09-01T05:29:13.469Z,99.90
2022-09-01T05:34:38.833Z,99.90
2022-09-01T05:40:02.728Z,99.90
2022-09-01T05:45:26.598Z,99.90
2022-09-01T05:50:49.741Z,99.90
2022-09-01T05:56:15.181Z,99.90
2022-09-01T06:01:41.075Z,99.90
2022-09-01T06:07:10.887Z,99.90
2022-09-01T06:12:36.311Z,99.90
2022-09-01T06:17:59.477Z,99.90
2022-09-01T06:23:23.215Z,99.90
2022-09-01T06:28:46.132Z,99.90
2022-09-01T06:34:13.959Z,99.90
2022-09-01T06:39:37.072Z,99.90
2022-09-01T06:44:59.864Z,99.90
2022-09-01T06:56:07.092Z,99.90
2022-09-01T07:01:30.840Z,99.90
2022-09-01T07:07:53.462Z,99.90
2022-09-01T07:13:06.505Z,99.90
2022-09-01T07:18:31.752Z,99.90
2022-09-01T07:24:11.591Z,99.90
2022-09-01T07:29:43.501Z,99.90
2022-09-01T07:35:12.432Z,99.90
2022-09-01T07:47:19.456Z,99.90
2022-09-01T07:52:42.802Z,99.90
2022-09-01T07:58:07.192Z,99.90
2022-09-01T08:03:30.791Z,99.90
2022-09-01T08:08:56.907Z,99.90
2022-09-01T08:14:20.963Z,99.90
2022-09-01T08:19:47.209Z,99.90
2022-09-01T08:25:20.774Z,99.90
2022-09-01T08:30:52.668Z,99.90
2022-09-01T08:36:23.713Z,99.90
2022-09-01T08:42:23.730Z,99.90
2022-09-01T08:48:15.383Z,99.90
2022-09-01T08:53:59.606Z,99.90
2022-09-01T08:59:22.825Z,99.90
2022-09-01T09:05:46.260Z,99.90
2022-09-01T09:11:19.765Z,99.90
2022-09-01T09:16:51.525Z,99.90
2022-09-01T09:22:19.421Z,99.90
2022-09-01T09:28:00.612Z,96.00
2022-09-01T09:33:53.969Z,94.50
2022-09-01T09:39:19.223Z,92.80
2022-09-01T09:44:45.883Z,88.20
2022-09-01T09:50:27.078Z,90.50
2022-09-01T09:56:15.954Z,80.30
2022-09-01T10:01:38.614Z,80.50
2022-09-01T10:07:01.489Z,78.80
2022-09-01T10:12:25.586Z,77.00
2022-09-01T10:17:49.585Z,80.90
2022-09-01T10:23:15.527Z,81.00
2022-09-01T10:28:50.704Z,82.60
2022-09-01T10:34:19.369Z,86.10
2022-09-01T10:40:21.036Z,86.60
2022-09-01T10:45:54.817Z,82.00
2022-09-01T10:51:28.081Z,89.40
2022-09-01T10:56:54.236Z,90.60
2022-09-01T11:02:29.533Z,92.10
2022-09-01T11:08:03.043Z,88.90
2022-09-01T11:13:52.600Z,91.60
2022-09-01T11:19:58.579Z,86.20
2022-09-01T11:25:44.182Z,90.80
2022-09-01T11:31:07.153Z,90.80
2022-09-01T11:36:32.071Z,85.10
2022-09-01T11:42:14.183Z,87.40
2022-09-01T11:47:45.245Z,83.70
2022-09-01T11:53:15.967Z,87.90
2022-09-01T11:58:39.571Z,82.10
2022-09-01T12:04:24.061Z,82.20
2022-09-01T12:09:48.561Z,84.20
2022-09-01T12:15:23.923Z,81.30
2022-09-01T12:26:18.267Z,78.50
2022-09-01T12:31:43.831Z,75.20
2022-09-01T12:37:16.183Z,73.20
2022-09-01T12:42:49.187Z,81.30
2022-09-01T12:48:31.538Z,79.20
2022-09-01T12:54:04.754Z,81.10
2022-09-01T12:59:36.028Z,75.40
2022-09-01T13:05:31.888Z,74.20
2022-09-01T13:11:03.216Z,77.90
2022-09-01T13:16:26.758Z,82.80
2022-09-01T13:21:50.903Z,81.60
2022-09-01T13:27:21.782Z,81.90
2022-09-01T13:38:32.500Z,78.90
2022-09-01T13:43:56.420Z,78.10
2022-09-01T13:55:08.318Z,78.30
2022-09-01T14:00:37.126Z,76.90
2022-09-01T14:06:00.584Z,79.60
2022-09-01T14:11:23.750Z,79.00
2022-09-01T14:16:47.160Z,78.90
2022-09-01T14:22:10.622Z,79.70
2022-09-01T14:27:39.780Z,79.70
2022-09-01T14:33:04.238Z,79.60
2022-09-01T14:38:27.310Z,80.10
2022-09-01T14:43:57.643Z,77.80
2022-09-01T14:49:23.414Z,75.20
2022-09-01T14:54:47.108Z,75.50
2022-09-01T15:00:13.711Z,78.10
2022-09-01T15:05:43.285Z,80.90
2022-09-01T15:11:16.492Z,78.60
2022-09-01T15:16:42.017Z,77.40
2022-09-01T15:22:07.420Z,79.50
2022-09-01T15:27:31.333Z,78.90
2022-09-01T15:32:55.312Z,78.50
2022-09-01T15:38:18.708Z,78.80
2022-09-01T15:43:41.759Z,82.00
2022-09-01T15:49:09.382Z,79.50
2022-09-01T15:54:32.719Z,79.90
2022-09-01T15:59:56.200Z,82.90
2022-09-01T16:05:19.891Z,81.30
2022-09-01T16:10:43.379Z,83.50
2022-09-01T16:16:19.210Z,82.70
2022-09-01T16:22:06.537Z,85.30
2022-09-01T16:27:36.522Z,85.40
2022-09-01T16:33:04.924Z,85.00
2022-09-01T16:38:38.441Z,86.80
2022-09-01T16:44:37.354Z,84.00
2022-09-01T16:50:22.974Z,85.70
2022-09-01T16:56:08.351Z,86.50
2022-09-01T17:01:44.079Z,87.50
2022-09-01T17:07:11.592Z,89.30
2022-09-01T17:12:52.485Z,88.00
2022-09-01T17:18:40.056Z,87.60
2022-09-01T17:24:12.831Z,90.50
2022-09-01T17:29:45.130Z,90.70
2022-09-01T17:35:20.170Z,91.70
2022-09-01T17:41:11.113Z,93.60
2022-09-01T17:46:46.755Z,96.10
2022-09-01T17:52:41.271Z,99.10
2022-09-01T17:58:28.714Z,99.90
2022-09-01T18:04:14.543Z,99.90
2022-09-01T18:09:46.542Z,99.90
2022-09-01T18:15:13.788Z,99.90
2022-09-01T18:20:43.724Z,99.90
2022-09-01T18:26:06.998Z,99.90
2022-09-01T18:31:35.575Z,99.90
2022-09-01T18:37:56.026Z,99.90
2022-09-01T18:43:19.006Z,99.90
2022-09-01T18:48:57.302Z,99.90
2022-09-01T18:54:34.310Z,99.90
2022-09-01T19:00:08.904Z,99.90
2022-09-01T19:06:01.927Z,99.90
2022-09-01T19:11:42.333Z,99.90
2022-09-01T19:17:21.286Z,99.90
2022-09-01T19:23:10.793Z,99.90
2022-09-01T19:28:43.425Z,99.90
2022-09-01T19:34:14.704Z,99.90
2022-09-01T19:39:41.971Z,99.90
2022-09-01T19:45:10.982Z,99.90
2022-09-01T19:50:39.073Z,99.90
2022-09-01T19:56:14.347Z,99.90
2022-09-01T20:01:47.096Z,99.90
2022-09-01T20:07:38.678Z,99.90
2022-09-01T20:13:20.278Z,99.90
2022-09-01T20:19:08.388Z,99.90
2022-09-01T20:24:40.024Z,99.90
2022-09-01T20:30:20.400Z,99.90
2022-09-01T20:35:53.381Z,99.90
2022-09-01T20:41:38.807Z,99.90
2022-09-01T20:47:08.115Z,99.90
2022-09-01T20:52:59.447Z,99.90
2022-09-01T20:58:34.185Z,99.90
2022-09-01T21:04:20.565Z,99.90
2022-09-01T21:09:49.683Z,99.90
2022-09-01T21:15:42.001Z,99.90
2022-09-01T21:21:36.296Z,99.90
2022-09-01T21:27:02.282Z,99.90
2022-09-01T21:32:26.068Z,99.90
2022-09-01T21:37:48.737Z,99.90
2022-09-01T21:43:22.586Z,99.90
2022-09-01T21:48:45.823Z,99.90
2022-09-01T21:54:11.616Z,99.90
2022-09-01T21:59:43.429Z,99.90
2022-09-01T22:05:07.195Z,99.90
2022-09-01T22:10:32.362Z,99.90
2022-09-01T22:15:56.053Z,99.90
2022-09-01T22:21:22.892Z,99.90
2022-09-01T22:26:46.593Z,99.90
2022-09-01T22:32:08.859Z,99.90
2022-09-01T22:37:30.985Z,99.90
2022-09-01T22:42:53.096Z,99.90
2022-09-01T22:48:16.871Z,99.90
2022-09-01T22:53:39.845Z,99.90
2022-09-01T22:59:04.535Z,99.90
2022-09-01T23:04:26.773Z,99.90
2022-09-01T23:09:48.921Z,99.90
2022-09-01T23:15:11.351Z,99.90
2022-09-01T23:20:33.517Z,99.90
2022-09-01T23:25:55.740Z,99.90
2022-09-01T23:31:22.427Z,99.90
2022-09-01T23:36:44.854Z,99.90
2022-09-01T23:42:07.025Z,99.90
2022-09-01T23:47:31.040Z,99.90
2022-09-01T23:52:53.219Z,99.90
2022-09-01T23:58:16.651Z,99.90
